createdAt,value
2023-03-03T00:00:05.122Z,3.30
2023-03-03T00:02:31.817Z,3.30
2023-03-03T00:04:58.553Z,3.30
2023-03-03T00:07:25.332Z,3.30
2023-03-03T00:09:52.079Z,3.30
2023-03-03T00:12:25.230Z,3.30
2023-03-03T00:14:52.246Z,3.30
2023-03-03T00:17:27.533Z,3.30
2023-03-03T00:19:54.405Z,3.20
2023-03-03T00:22:30.832Z,3.20
2023-03-03T00:25:20.395Z,3.20
2023-03-03T00:27:47.337Z,3.20
2023-03-03T00:30:25.349Z,3.10
2023-03-03T00:32:54.102Z,3.10
2023-03-03T00:35:30.102Z,3.10
2023-03-03T00:38:02.109Z,3.00
2023-03-03T00:40:35.442Z,3.00
2023-03-03T00:43:02.916Z,3.00
2023-03-03T00:45:44.204Z,2.90
2023-03-03T00:48:29.068Z,2.90
2023-03-03T00:51:00.588Z,2.90
2023-03-03T00:53:29.591Z,2.90
2023-03-03T00:55:56.615Z,2.90
2023-03-03T00:58:25.098Z,2.90
2023-03-03T01:00:53.408Z,2.90
2023-03-03T01:03:25.277Z,2.90
2023-03-03T01:05:52.932Z,2.90
2023-03-03T01:08:20.953Z,2.90
2023-03-03T01:10:53.188Z,2.90
2023-03-03T01:13:21.799Z,2.80
2023-03-03T01:15:48.466Z,2.80
2023-03-03T01:18:15.424Z,2.80
2023-03-03T01:20:42.324Z,2.80
2023-03-03T01:23:09.500Z,2.70
2023-03-03T01:25:36.811Z,2.70
2023-03-03T01:28:03.710Z,2.60
2023-03-03T01:30:31.261Z,2.60
2023-03-03T01:32:58.083Z,2.50
2023-03-03T01:35:24.822Z,2.50
2023-03-03T01:37:51.535Z,2.40
2023-03-03T01:40:21.321Z,2.40
2023-03-03T01:42:48.057Z,2.40
2023-03-03T01:45:20.673Z,2.30
2023-03-03T01:48:04.181Z,2.30
2023-03-03T01:50:36.476Z,2.30
2023-03-03T01:53:04.205Z,2.30
2023-03-03T01:55:35.553Z,2.20
2023-03-03T01:58:14.797Z,2.20
2023-03-03T02:00:42.714Z,2.20
2023-03-03T02:03:10.011Z,2.10
2023-03-03T02:05:37.302Z,2.10
2023-03-03T02:08:04.614Z,2.10
2023-03-03T02:10:31.751Z,2.10
2023-03-03T02:12:59.872Z,2.00
2023-03-03T02:15:29.783Z,2.00
2023-03-03T02:17:59.179Z,2.00
2023-03-03T02:20:29.017Z,2.00
2023-03-03T02:23:01.283Z,2.00
2023-03-03T02:25:41.209Z,2.00
2023-03-03T02:28:08.030Z,1.90
2023-03-03T02:30:38.677Z,1.90
2023-03-03T02:33:06.308Z,1.90
2023-03-03T02:35:36.410Z,1.90
2023-03-03T02:38:35.137Z,1.80
2023-03-03T02:41:36.941Z,1.90
2023-03-03T02:44:12.389Z,1.80
2023-03-03T02:46:41.066Z,1.80
2023-03-03T02:49:09.332Z,1.80
2023-03-03T02:51:36.376Z,1.80
2023-03-03T02:54:03.788Z,1.80
2023-03-03T02:56:30.696Z,1.80
2023-03-03T02:58:57.456Z,1.80
2023-03-03T03:01:24.608Z,1.70
2023-03-03T03:03:51.517Z,1.80
2023-03-03T03:06:18.253Z,1.70
2023-03-03T03:08:44.913Z,1.70
2023-03-03T03:11:11.567Z,1.70
2023-03-03T03:13:38.208Z,1.70
2023-03-03T03:16:05.238Z,1.70
2023-03-03T03:18:32.229Z,1.70
2023-03-03T03:21:06.582Z,1.70
2023-03-03T03:23:34.620Z,1.60
2023-03-03T03:26:01.263Z,1.60
2023-03-03T03:28:28.018Z,1.60
2023-03-03T03:30:54.928Z,1.60
2023-03-03T03:33:21.641Z,1.50
2023-03-03T03:35:48.492Z,1.50
2023-03-03T03:38:15.211Z,1.50
2023-03-03T03:40:41.950Z,1.50
2023-03-03T03:43:08.691Z,1.50
2023-03-03T03:45:35.308Z,1.50
2023-03-03T03:48:01.988Z,1.50
2023-03-03T03:50:28.615Z,1.50
2023-03-03T03:52:55.381Z,1.50
2023-03-03T03:55:22.712Z,1.50
2023-03-03T03:57:49.470Z,1.50
2023-03-03T04:00:16.473Z,1.50
2023-03-03T04:02:43.281Z,1.50
2023-03-03T04:05:10.300Z,1.50
2023-03-03T04:07:36.964Z,1.40
2023-03-03T04:10:04.171Z,1.40
2023-03-03T04:12:35.873Z,1.40
2023-03-03T04:15:02.576Z,1.40
2023-03-03T04:17:29.279Z,1.40
2023-03-03T04:19:55.993Z,1.40
2023-03-03T04:22:22.719Z,1.50
2023-03-03T04:24:49.466Z,1.60
2023-03-03T04:27:16.135Z,1.60
2023-03-03T04:29:43.031Z,1.70
2023-03-03T04:32:09.733Z,1.70
2023-03-03T04:34:36.505Z,1.70
2023-03-03T04:37:03.190Z,1.80
2023-03-03T04:39:30.485Z,1.80
2023-03-03T04:41:57.134Z,1.90
2023-03-03T04:44:23.767Z,1.90
2023-03-03T04:46:50.407Z,1.90
2023-03-03T04:49:17.059Z,1.90
2023-03-03T04:51:43.695Z,1.90
2023-03-03T04:54:10.391Z,1.90
2023-03-03T04:56:37.036Z,2.00
2023-03-03T04:59:03.759Z,2.00
2023-03-03T05:01:30.401Z,2.00
2023-03-03T05:03:57.059Z,2.00
2023-03-03T05:06:24.483Z,2.00
2023-03-03T05:08:51.163Z,2.00
2023-03-03T05:11:17.920Z,2.00
2023-03-03T05:13:45.982Z,2.00
2023-03-03T05:16:12.822Z,2.00
2023-03-03T05:18:39.898Z,2.00
2023-03-03T05:21:06.536Z,1.90
2023-03-03T05:23:33.227Z,1.90
2023-03-03T05:25:59.897Z,1.90
2023-03-03T05:28:26.524Z,1.90
2023-03-03T05:30:53.159Z,1.90
2023-03-03T05:33:19.900Z,1.90
2023-03-03T05:35:46.915Z,1.90
2023-03-03T05:38:13.592Z,2.00
2023-03-03T05:40:40.307Z,2.00
2023-03-03T05:43:07.210Z,2.00
2023-03-03T05:45:35.233Z,2.10
2023-03-03T05:48:01.951Z,2.10
2023-03-03T05:50:28.582Z,2.10
2023-03-03T05:52:55.268Z,2.10
2023-03-03T05:55:22.178Z,2.10
2023-03-03T05:57:48.794Z,2.10
2023-03-03T06:00:16.674Z,2.10
2023-03-03T06:02:44.333Z,2.20
2023-03-03T06:05:11.802Z,2.20
2023-03-03T06:07:38.668Z,2.20
2023-03-03T06:10:05.972Z,2.30
2023-03-03T06:12:32.661Z,2.20
2023-03-03T06:14:59.531Z,2.20
2023-03-03T06:17:26.276Z,2.20
2023-03-03T06:19:52.900Z,2.20
2023-03-03T06:22:20.163Z,2.10
2023-03-03T06:24:46.794Z,2.10
2023-03-03T06:27:13.457Z,2.10
2023-03-03T06:29:40.180Z,2.00
2023-03-03T06:32:07.001Z,2.00
2023-03-03T06:34:33.929Z,2.00
2023-03-03T06:37:00.743Z,2.00
2023-03-03T06:39:27.381Z,2.00
2023-03-03T06:41:54.220Z,2.00
2023-03-03T06:44:21.039Z,2.00
2023-03-03T06:46:47.659Z,2.10
2023-03-03T06:49:14.324Z,2.00
2023-03-03T06:51:41.110Z,2.00
2023-03-03T06:54:19.551Z,2.10
2023-03-03T06:56:47.115Z,2.00
2023-03-03T06:59:16.695Z,2.10
2023-03-03T07:01:44.369Z,2.10
2023-03-03T07:04:30.988Z,2.10
2023-03-03T07:07:11.464Z,2.10
2023-03-03T07:09:38.273Z,2.10
2023-03-03T07:12:12.579Z,2.10
2023-03-03T07:14:50.751Z,2.10
2023-03-03T07:17:19.480Z,2.10
2023-03-03T07:19:47.005Z,2.20
2023-03-03T07:22:23.193Z,2.20
2023-03-03T07:24:53.247Z,2.20
2023-03-03T07:27:29.393Z,2.20
2023-03-03T07:30:25.372Z,2.20
2023-03-03T07:32:56.436Z,2.30
2023-03-03T07:35:39.414Z,2.30
2023-03-03T07:38:25.261Z,2.30
2023-03-03T07:40:54.275Z,2.40
2023-03-03T07:43:35.025Z,2.50
2023-03-03T07:46:10.936Z,2.50
2023-03-03T07:48:40.985Z,2.60
2023-03-03T07:51:28.043Z,2.70
2023-03-03T07:54:22.868Z,2.80
2023-03-03T07:56:49.524Z,2.90
2023-03-03T07:59:25.945Z,3.00
2023-03-03T08:01:58.642Z,3.00
2023-03-03T08:04:33.862Z,3.00
2023-03-03T08:07:00.935Z,3.00
2023-03-03T08:09:32.007Z,3.00
2023-03-03T08:12:11.684Z,3.10
2023-03-03T08:14:38.940Z,3.10
2023-03-03T08:17:26.269Z,3.10
2023-03-03T08:19:54.143Z,3.10
2023-03-03T08:22:30.290Z,3.20
2023-03-03T08:24:56.977Z,3.20
2023-03-03T08:27:23.631Z,3.30
2023-03-03T08:29:50.343Z,3.40
2023-03-03T08:32:17.104Z,3.40
2023-03-03T08:34:43.790Z,3.50
2023-03-03T08:37:10.651Z,3.60
2023-03-03T08:39:37.359Z,3.60
2023-03-03T08:42:04.253Z,3.70
2023-03-03T08:44:30.975Z,3.80
2023-03-03T08:46:57.652Z,3.90
2023-03-03T08:49:24.317Z,4.00
2023-03-03T08:51:52.584Z,4.10
2023-03-03T08:54:19.275Z,4.20
2023-03-03T08:56:45.983Z,4.30
2023-03-03T08:59:13.488Z,4.30
2023-03-03T09:01:40.182Z,4.40
2023-03-03T09:04:06.883Z,4.50
2023-03-03T09:06:33.565Z,4.50
2023-03-03T09:09:00.370Z,4.60
2023-03-03T09:11:28.645Z,4.60
2023-03-03T09:14:07.392Z,4.60
2023-03-03T09:16:38.845Z,4.60
2023-03-03T09:19:27.570Z,4.60
2023-03-03T09:21:56.520Z,4.60
2023-03-03T09:24:31.085Z,4.70
2023-03-03T09:26:58.962Z,4.60
2023-03-03T09:29:30.636Z,4.70
2023-03-03T09:32:00.649Z,4.60
2023-03-03T09:34:41.226Z,4.70
2023-03-03T09:37:33.381Z,4.70
2023-03-03T09:40:00.259Z,4.70
2023-03-03T09:42:33.252Z,4.80
2023-03-03T09:45:18.708Z,4.90
2023-03-03T09:48:22.870Z,5.00
2023-03-03T09:51:02.485Z,5.20
2023-03-03T09:54:06.923Z,5.40
2023-03-03T09:56:38.077Z,5.60
2023-03-03T09:59:40.094Z,5.70
2023-03-03T10:02:31.565Z,5.90
2023-03-03T10:05:16.949Z,5.90
2023-03-03T10:07:55.694Z,5.90
2023-03-03T10:10:36.409Z,5.90
2023-03-03T10:13:19.924Z,6.00
2023-03-03T10:16:08.279Z,6.00
2023-03-03T10:18:50.922Z,5.90
2023-03-03T10:21:34.786Z,5.80
2023-03-03T10:24:15.086Z,5.80
2023-03-03T10:27:14.111Z,5.80
2023-03-03T10:30:04.207Z,5.90
2023-03-03T10:32:40.536Z,5.90
2023-03-03T10:35:19.280Z,6.00
2023-03-03T10:37:46.331Z,6.00
2023-03-03T10:40:33.524Z,5.90
2023-03-03T10:43:32.151Z,5.90
2023-03-03T10:46:08.565Z,6.00
2023-03-03T10:49:03.482Z,5.90
2023-03-03T10:51:54.670Z,6.00
2023-03-03T10:54:33.349Z,6.00
2023-03-03T10:57:38.499Z,6.10
2023-03-03T11:00:08.278Z,6.10
2023-03-03T11:02:41.529Z,6.00
2023-03-03T11:05:27.283Z,6.00
2023-03-03T11:08:15.983Z,6.00
2023-03-03T11:10:48.211Z,6.00
2023-03-03T11:13:19.688Z,6.20
2023-03-03T11:16:06.487Z,6.30
2023-03-03T11:18:42.012Z,6.40
2023-03-03T11:21:42.631Z,6.50
2023-03-03T11:24:19.789Z,6.50
2023-03-03T11:27:12.454Z,6.60
2023-03-03T11:30:16.677Z,6.70
2023-03-03T11:32:46.781Z,6.70
2023-03-03T11:35:19.155Z,6.80
2023-03-03T11:38:29.185Z,6.80
2023-03-03T11:40:56.944Z,6.90
2023-03-03T11:43:40.932Z,6.90
2023-03-03T11:46:13.399Z,6.90
2023-03-03T11:49:03.814Z,7.00
2023-03-03T11:51:54.120Z,7.00
2023-03-03T11:54:24.293Z,6.90
2023-03-03T11:56:52.128Z,6.90
2023-03-03T11:59:52.610Z,6.90
2023-03-03T12:02:22.340Z,6.90
2023-03-03T12:04:54.514Z,6.90
2023-03-03T12:07:39.311Z,6.90
2023-03-03T12:10:17.773Z,6.90
2023-03-03T12:12:48.879Z,6.90
2023-03-03T12:15:50.336Z,6.90
2023-03-03T12:18:37.856Z,6.80
2023-03-03T12:21:13.078Z,6.90
2023-03-03T12:24:11.823Z,6.90
2023-03-03T12:26:53.788Z,6.90
2023-03-03T12:29:53.740Z,6.90
2023-03-03T12:32:56.543Z,6.90
2023-03-03T12:35:31.942Z,7.00
2023-03-03T12:38:13.335Z,7.00
2023-03-03T12:41:01.675Z,7.00
2023-03-03T12:43:46.990Z,6.90
2023-03-03T12:46:19.982Z,7.00
2023-03-03T12:48:47.328Z,7.00
2023-03-03T12:51:39.023Z,7.00
2023-03-03T12:54:14.499Z,7.10
2023-03-03T12:56:53.094Z,7.10
2023-03-03T12:59:54.036Z,7.00
2023-03-03T13:02:36.129Z,6.90
2023-03-03T13:05:23.270Z,6.80
2023-03-03T13:08:17.858Z,6.70
2023-03-03T13:10:55.999Z,6.70
2023-03-03T13:13:33.742Z,6.70
2023-03-03T13:16:07.101Z,6.80
2023-03-03T13:18:49.411Z,6.80
2023-03-03T13:21:29.098Z,6.90
2023-03-03T13:24:34.606Z,6.90
2023-03-03T13:27:13.811Z,7.00
2023-03-03T13:29:50.950Z,7.20
2023-03-03T13:32:28.990Z,7.30
2023-03-03T13:35:11.803Z,7.40
2023-03-03T13:37:45.670Z,7.40
2023-03-03T13:40:37.009Z,7.40
2023-03-03T13:43:09.673Z,7.50
2023-03-03T13:46:24.591Z,7.50
2023-03-03T13:49:15.008Z,7.40
2023-03-03T13:51:53.455Z,7.40
2023-03-03T13:54:45.036Z,7.30
2023-03-03T13:57:35.604Z,7.20
2023-03-03T14:00:40.320Z,7.30
2023-03-03T14:03:41.076Z,7.30
2023-03-03T14:06:28.438Z,7.30
2023-03-03T14:09:29.705Z,7.20
2023-03-03T14:12:14.926Z,7.10
2023-03-03T14:14:57.633Z,7.00
2023-03-03T14:17:38.501Z,7.00
2023-03-03T14:20:06.167Z,6.90
2023-03-03T14:22:47.278Z,6.90
2023-03-03T14:25:15.395Z,6.90
2023-03-03T14:28:00.750Z,6.80
2023-03-03T14:30:40.931Z,6.70
2023-03-03T14:33:07.703Z,6.70
2023-03-03T14:35:44.973Z,6.60
2023-03-03T14:38:15.294Z,6.60
2023-03-03T14:40:45.400Z,6.50
2023-03-03T14:43:25.766Z,6.60
2023-03-03T14:45:56.584Z,6.60
2023-03-03T14:48:25.487Z,6.60
2023-03-03T14:50:59.065Z,6.60
2023-03-03T14:53:36.061Z,6.50
2023-03-03T14:56:22.959Z,6.50
2023-03-03T14:58:50.729Z,6.50
2023-03-03T15:01:36.009Z,6.50
2023-03-03T15:04:23.495Z,6.50
2023-03-03T15:06:59.345Z,6.50
2023-03-03T15:09:43.069Z,6.40
2023-03-03T15:12:22.932Z,6.40
2023-03-03T15:15:11.637Z,6.40
2023-03-03T15:17:49.533Z,6.30
2023-03-03T15:20:50.343Z,6.40
2023-03-03T15:23:28.882Z,6.30
2023-03-03T15:26:01.814Z,6.30
2023-03-03T15:28:33.185Z,6.30
2023-03-03T15:31:23.111Z,6.30
2023-03-03T15:34:04.105Z,6.30
2023-03-03T15:36:50.867Z,6.30
2023-03-03T15:39:42.480Z,6.20
2023-03-03T15:42:15.767Z,6.20
2023-03-03T15:45:03.748Z,6.20
2023-03-03T15:47:42.708Z,6.10
2023-03-03T15:50:36.159Z,6.20
2023-03-03T15:53:24.677Z,6.20
2023-03-03T15:55:51.405Z,6.10
2023-03-03T15:59:00.313Z,6.10
2023-03-03T16:01:32.513Z,6.10
2023-03-03T16:04:01.185Z,6.00
2023-03-03T16:06:41.322Z,6.00
2023-03-03T16:09:27.507Z,6.00
2023-03-03T16:12:16.486Z,6.00
2023-03-03T16:15:01.201Z,5.90
2023-03-03T16:17:43.275Z,6.00
2023-03-03T16:20:25.104Z,6.00
2023-03-03T16:23:17.692Z,5.90
2023-03-03T16:26:03.288Z,5.90
2023-03-03T16:29:03.613Z,5.90
2023-03-03T16:32:11.581Z,5.80
2023-03-03T16:34:55.727Z,5.80
2023-03-03T16:37:34.826Z,5.80
2023-03-03T16:40:38.952Z,5.80
2023-03-03T16:43:38.090Z,5.80
2023-03-03T16:46:31.270Z,5.70
2023-03-03T16:49:13.317Z,5.60
2023-03-03T16:51:49.257Z,5.60
2023-03-03T16:54:33.791Z,5.60
2023-03-03T16:57:26.785Z,5.50
2023-03-03T17:00:05.197Z,5.50
2023-03-03T17:02:40.747Z,5.40
2023-03-03T17:05:30.037Z,5.40
2023-03-03T17:08:18.634Z,5.30
2023-03-03T17:11:04.493Z,5.20
2023-03-03T17:13:47.332Z,5.10
2023-03-03T17:16:51.557Z,5.00
2023-03-03T17:19:37.478Z,4.90
2023-03-03T17:22:43.284Z,4.90
2023-03-03T17:25:29.083Z,4.90
2023-03-03T17:28:03.846Z,4.80
2023-03-03T17:30:42.732Z,4.70
2023-03-03T17:33:47.188Z,4.60
2023-03-03T17:36:19.616Z,4.60
2023-03-03T17:39:11.186Z,4.50
2023-03-03T17:41:59.463Z,4.50
2023-03-03T17:44:58.188Z,4.40
2023-03-03T17:47:39.816Z,4.40
2023-03-03T17:50:06.418Z,4.30
2023-03-03T17:52:35.840Z,4.20
2023-03-03T17:55:27.822Z,4.20
2023-03-03T17:58:33.338Z,4.20
2023-03-03T18:01:24.892Z,4.10
2023-03-03T18:04:05.108Z,4.10
2023-03-03T18:06:31.703Z,4.00
2023-03-03T18:09:14.630Z,4.00
2023-03-03T18:11:44.432Z,4.00
2023-03-03T18:14:44.729Z,4.00
2023-03-03T18:17:36.434Z,4.00
2023-03-03T18:20:13.062Z,4.00
2023-03-03T18:22:52.775Z,3.90
2023-03-03T18:25:46.992Z,3.90
2023-03-03T18:28:18.951Z,3.80
2023-03-03T18:30:57.941Z,3.80
2023-03-03T18:33:35.387Z,3.80
2023-03-03T18:36:26.561Z,3.70
2023-03-03T18:38:57.640Z,3.70
2023-03-03T18:41:32.101Z,3.70
2023-03-03T18:44:23.087Z,3.60
2023-03-03T18:47:40.157Z,3.60
2023-03-03T18:50:34.008Z,3.70
2023-03-03T18:53:12.842Z,3.60
2023-03-03T18:55:52.816Z,3.50
2023-03-03T18:58:19.634Z,3.40
2023-03-03T19:00:53.197Z,3.40
2023-03-03T19:03:31.317Z,3.30
2023-03-03T19:05:59.977Z,3.30
2023-03-03T19:08:29.789Z,3.30
2023-03-03T19:10:58.737Z,3.30
2023-03-03T19:13:34.477Z,3.30
2023-03-03T19:16:02.728Z,3.30
2023-03-03T19:18:35.572Z,3.30
2023-03-03T19:21:11.422Z,3.30
2023-03-03T19:24:00.731Z,3.30
2023-03-03T19:26:30.334Z,3.20
2023-03-03T19:29:24.005Z,3.20
2023-03-03T19:31:55.725Z,3.20
2023-03-03T19:34:39.448Z,3.10
2023-03-03T19:37:12.290Z,3.10
2023-03-03T19:40:04.925Z,3.10
2023-03-03T19:42:56.386Z,3.00
2023-03-03T19:45:28.987Z,2.90
2023-03-03T19:48:23.458Z,2.90
2023-03-03T19:51:07.976Z,2.80
2023-03-03T19:53:45.583Z,2.70
2023-03-03T19:56:23.953Z,2.70
2023-03-03T19:59:15.222Z,2.70
2023-03-03T20:01:48.748Z,2.60
2023-03-03T20:04:53.232Z,2.60
2023-03-03T20:07:48.668Z,2.60
2023-03-03T20:10:28.745Z,2.60
2023-03-03T20:13:11.861Z,2.60
2023-03-03T20:15:38.863Z,2.50
2023-03-03T20:18:25.749Z,2.50
2023-03-03T20:20:52.412Z,2.50
2023-03-03T20:23:42.357Z,2.50
2023-03-03T20:26:23.428Z,2.50
2023-03-03T20:29:11.741Z,2.40
2023-03-03T20:31:57.196Z,2.40
2023-03-03T20:34:47.260Z,2.40
2023-03-03T20:37:33.006Z,2.40
2023-03-03T20:40:27.662Z,2.40
2023-03-03T20:43:29.872Z,2.40
2023-03-03T20:46:02.547Z,2.30
2023-03-03T20:48:55.384Z,2.30
2023-03-03T20:51:35.718Z,2.30
2023-03-03T20:54:14.441Z,2.30
2023-03-03T20:57:11.304Z,2.30
2023-03-03T21:00:02.187Z,2.30
2023-03-03T21:02:32.435Z,2.30
2023-03-03T21:05:22.530Z,2.20
2023-03-03T21:07:56.830Z,2.20
2023-03-03T21:10:29.186Z,2.20
2023-03-03T21:12:58.538Z,2.20
2023-03-03T21:15:36.394Z,2.30
2023-03-03T21:18:20.985Z,2.30
2023-03-03T21:20:47.663Z,2.30
2023-03-03T21:23:14.457Z,2.40
2023-03-03T21:25:41.234Z,2.40
2023-03-03T21:28:27.143Z,2.40
2023-03-03T21:31:00.941Z,2.40
2023-03-03T21:33:55.873Z,2.50
2023-03-03T21:36:47.146Z,2.50
2023-03-03T21:39:27.841Z,2.50
2023-03-03T21:42:15.064Z,2.40
2023-03-03T21:44:51.326Z,2.40
2023-03-03T21:47:20.817Z,2.40
2023-03-03T21:49:49.304Z,2.40
2023-03-03T21:52:18.478Z,2.50
2023-03-03T21:54:46.780Z,2.50
2023-03-03T21:57:13.608Z,2.50
2023-03-03T21:59:40.666Z,2.50
2023-03-03T22:02:08.238Z,2.50
2023-03-03T22:04:35.099Z,2.60
2023-03-03T22:07:01.884Z,2.60
2023-03-03T22:09:28.516Z,2.60
2023-03-03T22:11:55.488Z,2.60
2023-03-03T22:14:22.243Z,2.60
2023-03-03T22:16:48.918Z,2.60
2023-03-03T22:19:15.722Z,2.50
2023-03-03T22:21:42.766Z,2.40
2023-03-03T22:24:09.674Z,2.40
2023-03-03T22:26:36.342Z,2.40
2023-03-03T22:29:03.325Z,2.50
2023-03-03T22:31:30.077Z,2.50
2023-03-03T22:33:56.791Z,2.50
2023-03-03T22:36:23.478Z,2.50
2023-03-03T22:38:50.168Z,2.50
2023-03-03T22:41:17.380Z,2.50
2023-03-03T22:43:44.180Z,2.50
2023-03-03T22:46:11.037Z,2.40
2023-03-03T22:48:38.299Z,2.40
2023-03-03T22:51:05.705Z,2.30
2023-03-03T22:53:32.948Z,2.30
2023-03-03T22:55:59.955Z,2.20
2023-03-03T22:58:26.835Z,2.20
2023-03-03T23:00:55.689Z,2.10
2023-03-03T23:03:22.584Z,2.10
2023-03-03T23:05:51.627Z,2.10
2023-03-03T23:08:19.185Z,2.10
2023-03-03T23:10:46.084Z,2.10
2023-03-03T23:13:13.108Z,2.10
2023-03-03T23:15:39.837Z,2.00
2023-03-03T23:18:06.758Z,2.00
2023-03-03T23:20:33.580Z,1.90
2023-03-03T23:23:00.624Z,1.90
2023-03-03T23:25:28.795Z,1.90
2023-03-03T23:27:56.114Z,1.90
2023-03-03T23:30:23.269Z,1.90
2023-03-03T23:32:50.104Z,1.90
2023-03-03T23:35:17.192Z,1.90
2023-03-03T23:37:44.894Z,1.90
2023-03-03T23:40:12.473Z,1.90
2023-03-03T23:42:39.580Z,1.90
2023-03-03T23:45:07.017Z,1.90
2023-03-03T23:47:33.934Z,1.90
2023-03-03T23:50:00.692Z,1.90
2023-03-03T23:52:27.425Z,1.90
2023-03-03T23:54:54.177Z,1.90
2023-03-03T23:57:20.869Z,1.80
2023-03-03T23:59:47.612Z,1.80
